createdAt,value
2023-05-14T00:00:04.826Z,9.30
2023-05-14T00:03:09.562Z,10.48
2023-05-14T00:06:14.603Z,10.35
2023-05-14T00:09:18.103Z,10.40
2023-05-14T00:12:21.970Z,9.53
2023-05-14T00:15:25.313Z,10.10
2023-05-14T00:18:29.207Z,9.23
2023-05-14T00:21:32.485Z,8.70
2023-05-14T00:24:36.403Z,8.38
2023-05-14T00:27:39.574Z,8.13
2023-05-14T00:30:42.981Z,8.10
2023-05-14T00:33:46.362Z,8.40
2023-05-14T00:36:51.430Z,8.50
2023-05-14T00:39:54.635Z,9.07
2023-05-14T00:42:58.156Z,8.07
2023-05-14T00:46:01.464Z,8.45
2023-05-14T00:49:05.209Z,8.20
2023-05-14T00:52:08.927Z,7.70
2023-05-14T00:55:16.708Z,8.43
2023-05-14T00:58:20.535Z,8.23
2023-05-14T01:01:25.248Z,7.75
2023-05-14T01:04:28.663Z,7.95
2023-05-14T01:07:54.981Z,7.43
2023-05-14T01:11:03.688Z,7.65
2023-05-14T01:14:24.953Z,8.23
2023-05-14T01:17:31.181Z,7.10
2023-05-14T01:20:34.643Z,7.18
2023-05-14T01:23:38.135Z,7.53
2023-05-14T01:26:41.592Z,7.22
2023-05-14T01:29:52.766Z,7.13
2023-05-14T01:32:59.048Z,7.28
2023-05-14T01:36:03.059Z,7.85
2023-05-14T01:39:09.704Z,7.20
2023-05-14T01:42:13.448Z,6.68
2023-05-14T01:45:17.059Z,7.17
2023-05-14T01:48:20.594Z,7.50
2023-05-14T01:51:23.928Z,8.20
2023-05-14T01:54:27.448Z,7.50
2023-05-14T01:57:31.472Z,7.53
2023-05-14T02:00:34.961Z,7.37
2023-05-14T02:03:38.437Z,7.18
2023-05-14T02:06:41.569Z,7.65
2023-05-14T02:09:45.361Z,7.25
2023-05-14T02:12:48.374Z,7.68
2023-05-14T02:15:51.906Z,7.93
2023-05-14T02:18:55.216Z,7.35
2023-05-14T02:22:01.250Z,6.55
2023-05-14T02:25:04.695Z,6.72
2023-05-14T02:28:08.028Z,6.45
2023-05-14T02:31:11.221Z,6.33
2023-05-14T02:34:14.698Z,5.90
2023-05-14T02:37:17.804Z,6.75
2023-05-14T02:40:21.561Z,6.70
2023-05-14T02:43:24.746Z,7.10
2023-05-14T02:46:28.972Z,6.10
2023-05-14T02:49:32.133Z,6.43
2023-05-14T02:52:36.046Z,6.32
2023-05-14T02:55:39.173Z,6.05
2023-05-14T02:58:42.480Z,6.15
2023-05-14T03:01:46.033Z,6.83
2023-05-14T03:04:50.666Z,5.45
2023-05-14T03:07:53.855Z,6.28
2023-05-14T03:10:57.302Z,6.35
2023-05-14T03:14:00.369Z,6.28
2023-05-14T03:17:04.169Z,6.33
2023-05-14T03:20:07.947Z,6.55
2023-05-14T03:23:14.984Z,6.57
2023-05-14T03:26:19.001Z,6.75
2023-05-14T03:29:22.402Z,6.30
2023-05-14T03:32:25.654Z,6.40
2023-05-14T03:35:29.435Z,6.07
2023-05-14T03:38:32.594Z,6.07
2023-05-14T03:41:36.443Z,5.80
2023-05-14T03:44:39.512Z,6.35
2023-05-14T03:47:42.896Z,6.35
2023-05-14T03:50:46.429Z,6.10
2023-05-14T03:53:49.851Z,4.95
2023-05-14T03:56:52.918Z,5.87
2023-05-14T03:59:56.311Z,5.60
2023-05-14T04:02:59.384Z,5.28
2023-05-14T04:06:02.779Z,5.45
2023-05-14T04:09:06.772Z,5.65
2023-05-14T04:12:12.366Z,5.70
2023-05-14T04:15:16.006Z,5.70
2023-05-14T04:18:19.442Z,5.28
2023-05-14T04:21:22.569Z,5.90
2023-05-14T04:24:25.913Z,5.55
2023-05-14T04:27:29.286Z,5.60
2023-05-14T04:30:32.694Z,5.47
2023-05-14T04:33:35.911Z,5.87
2023-05-14T04:36:40.307Z,5.32
2023-05-14T04:39:43.790Z,5.90
2023-05-14T04:42:47.163Z,5.95
2023-05-14T04:45:51.746Z,6.07
2023-05-14T04:48:55.097Z,6.37
2023-05-14T04:51:58.626Z,5.60
2023-05-14T04:55:02.150Z,5.87
2023-05-14T04:58:05.797Z,5.93
2023-05-14T05:01:09.490Z,5.63
2023-05-14T05:04:13.077Z,5.25
2023-05-14T05:07:16.443Z,8.57
2023-05-14T05:10:19.559Z,4.95
2023-05-14T05:13:23.016Z,5.20
2023-05-14T05:16:26.534Z,4.80
2023-05-14T05:19:42.404Z,4.85
2023-05-14T05:22:46.499Z,4.90
2023-05-14T05:25:50.897Z,5.15
2023-05-14T05:28:54.033Z,4.78
2023-05-14T05:31:57.673Z,5.17
2023-05-14T05:35:01.505Z,5.47
2023-05-14T05:38:04.943Z,5.70
2023-05-14T05:41:08.284Z,4.70
2023-05-14T05:44:11.759Z,5.18
2023-05-14T05:47:14.816Z,5.10
2023-05-14T05:50:20.000Z,5.17
2023-05-14T05:53:23.261Z,5.75
2023-05-14T05:56:26.771Z,5.82
2023-05-14T05:59:29.798Z,5.20
2023-05-14T06:02:33.343Z,5.33
2023-05-14T06:05:38.300Z,5.50
2023-05-14T06:08:42.291Z,5.05
2023-05-14T06:11:45.860Z,5.55
2023-05-14T06:14:49.424Z,5.68
2023-05-14T06:17:52.884Z,5.47
2023-05-14T06:20:57.028Z,5.27
2023-05-14T06:24:00.586Z,6.12
2023-05-14T06:27:03.771Z,6.32
2023-05-14T06:30:07.811Z,6.75
2023-05-14T06:33:13.079Z,6.43
2023-05-14T06:36:16.392Z,6.35
2023-05-14T06:39:19.425Z,6.80
2023-05-14T06:42:22.828Z,6.18
2023-05-14T06:45:25.928Z,6.65
2023-05-14T06:48:29.764Z,6.53
2023-05-14T06:51:32.980Z,5.55
2023-05-14T06:54:37.455Z,5.93
2023-05-14T06:57:40.956Z,6.37
2023-05-14T07:00:45.140Z,6.28
2023-05-14T07:03:48.319Z,5.80
2023-05-14T07:06:51.710Z,7.60
2023-05-14T07:09:54.899Z,6.40
2023-05-14T07:12:58.596Z,6.00
2023-05-14T07:16:01.575Z,5.97
2023-05-14T07:19:04.943Z,5.23
2023-05-14T07:22:08.205Z,5.70
2023-05-14T07:25:14.347Z,5.43
2023-05-14T07:28:17.610Z,5.85
2023-05-14T07:31:21.166Z,6.10
2023-05-14T07:34:24.557Z,5.27
2023-05-14T07:37:27.990Z,5.53
2023-05-14T07:40:31.689Z,5.35
2023-05-14T07:43:36.050Z,5.37
2023-05-14T07:46:39.285Z,4.80
2023-05-14T07:49:43.488Z,4.83
2023-05-14T07:52:46.535Z,4.33
2023-05-14T07:55:49.970Z,5.07
2023-05-14T07:58:53.005Z,5.15
2023-05-14T08:01:56.904Z,4.87
2023-05-14T08:05:00.677Z,4.57
2023-05-14T08:08:03.937Z,4.80
2023-05-14T08:11:07.226Z,4.65
2023-05-14T08:14:10.240Z,5.10
2023-05-14T08:17:14.219Z,4.35
2023-05-14T08:20:17.354Z,4.40
2023-05-14T08:23:20.980Z,5.00
2023-05-14T08:26:24.863Z,4.30
2023-05-14T08:29:28.610Z,4.43
2023-05-14T08:32:31.665Z,4.35
2023-05-14T08:35:35.185Z,4.40
2023-05-14T08:38:38.281Z,5.13
2023-05-14T08:41:41.726Z,4.50
2023-05-14T08:44:59.240Z,4.95
2023-05-14T08:48:09.229Z,4.57
2023-05-14T08:51:12.923Z,4.33
2023-05-14T08:54:18.101Z,4.90
2023-05-14T08:57:24.896Z,4.53
2023-05-14T09:00:28.562Z,4.60
2023-05-14T09:03:33.444Z,4.40
2023-05-14T09:06:38.434Z,5.30
2023-05-14T09:09:43.067Z,4.77
2023-05-14T09:12:46.495Z,4.93
2023-05-14T09:15:51.361Z,4.72
2023-05-14T09:18:55.879Z,5.30
2023-05-14T09:21:59.399Z,5.67
2023-05-14T09:25:09.519Z,5.27
2023-05-14T09:28:12.961Z,6.30
2023-05-14T09:31:16.306Z,5.10
2023-05-14T09:34:30.689Z,5.93
2023-05-14T09:37:37.098Z,5.63
2023-05-14T09:40:40.445Z,6.03
2023-05-14T09:43:45.197Z,5.55
2023-05-14T09:46:49.224Z,5.65
2023-05-14T09:49:53.062Z,5.47
2023-05-14T09:52:56.297Z,6.50
2023-05-14T09:55:59.890Z,5.40
2023-05-14T09:59:03.935Z,6.37
2023-05-14T10:02:34.058Z,6.75
2023-05-14T10:05:40.157Z,6.72
2023-05-14T10:08:45.772Z,6.87
2023-05-14T10:11:54.367Z,6.87
2023-05-14T10:15:01.586Z,6.68
2023-05-14T10:18:11.426Z,7.37
2023-05-14T10:21:15.806Z,7.45
2023-05-14T10:24:20.230Z,7.73
2023-05-14T10:27:23.885Z,7.50
2023-05-14T10:30:27.400Z,7.78
2023-05-14T10:33:30.679Z,9.43
2023-05-14T10:36:34.063Z,8.38
2023-05-14T10:39:47.561Z,8.03
2023-05-14T10:42:51.104Z,9.43
2023-05-14T10:45:54.514Z,7.68
2023-05-14T10:48:59.562Z,9.10
2023-05-14T10:52:02.613Z,10.65
2023-05-14T10:55:10.330Z,10.10
2023-05-14T10:58:13.514Z,10.93
2023-05-14T11:01:17.038Z,10.88
2023-05-14T11:04:24.595Z,11.30
2023-05-14T11:07:33.729Z,11.55
2023-05-14T11:10:39.025Z,13.13
2023-05-14T11:13:43.148Z,13.03
2023-05-14T11:16:47.551Z,13.60
2023-05-14T11:19:51.212Z,12.65
2023-05-14T11:22:55.529Z,11.93
2023-05-14T11:25:58.668Z,12.03
2023-05-14T11:29:02.034Z,11.33
2023-05-14T11:32:06.765Z,10.88
2023-05-14T11:35:10.270Z,10.50
2023-05-14T11:38:15.756Z,11.12
2023-05-14T11:41:21.721Z,10.70
2023-05-14T11:44:25.566Z,12.60
2023-05-14T11:47:31.833Z,14.15
2023-05-14T11:50:36.853Z,15.73
2023-05-14T11:53:40.037Z,14.13
2023-05-14T11:56:43.542Z,13.43
2023-05-14T11:59:47.964Z,13.27
2023-05-14T12:02:51.974Z,12.07
2023-05-14T12:06:07.757Z,13.13
2023-05-14T12:09:15.770Z,11.57
2023-05-14T12:12:21.629Z,13.03
2023-05-14T12:15:26.772Z,13.43
2023-05-14T12:18:32.495Z,13.68
2023-05-14T12:21:36.732Z,13.57
2023-05-14T12:24:40.452Z,10.30
2023-05-14T12:27:45.670Z,8.13
2023-05-14T12:30:56.845Z,8.53
2023-05-14T12:34:00.162Z,8.43
2023-05-14T12:37:05.045Z,8.13
2023-05-14T12:40:09.786Z,7.85
2023-05-14T12:43:13.372Z,6.83
2023-05-14T12:46:17.957Z,7.73
2023-05-14T12:49:21.360Z,8.10
2023-05-14T12:52:36.861Z,8.43
2023-05-14T12:55:41.632Z,8.25
2023-05-14T12:58:46.767Z,8.87
2023-05-14T13:01:50.214Z,8.23
2023-05-14T13:04:53.231Z,9.23
2023-05-14T13:07:59.505Z,8.73
2023-05-14T13:11:02.694Z,9.00
2023-05-14T13:14:06.250Z,9.97
2023-05-14T13:17:09.584Z,10.90
2023-05-14T13:20:12.884Z,10.70
2023-05-14T13:23:16.136Z,10.25
2023-05-14T13:26:19.529Z,10.38
2023-05-14T13:29:22.596Z,10.47
2023-05-14T13:32:26.134Z,11.07
2023-05-14T13:35:29.295Z,11.40
2023-05-14T13:38:32.991Z,11.52
2023-05-14T13:41:37.865Z,10.85
2023-05-14T13:44:41.617Z,12.40
2023-05-14T13:47:44.813Z,13.33
2023-05-14T13:50:48.627Z,14.07
2023-05-14T13:53:51.965Z,14.20
2023-05-14T13:56:56.278Z,14.50
2023-05-14T13:59:59.683Z,15.57
2023-05-14T14:03:03.579Z,14.13
2023-05-14T14:06:07.051Z,13.07
2023-05-14T14:09:10.166Z,12.40
2023-05-14T14:12:13.815Z,11.57
2023-05-14T14:15:17.059Z,11.33
2023-05-14T14:18:20.637Z,9.90
2023-05-14T14:21:23.992Z,9.20
2023-05-14T14:24:27.934Z,9.43
2023-05-14T14:27:32.421Z,9.57
2023-05-14T14:30:36.095Z,10.43
2023-05-14T14:33:39.261Z,10.65
2023-05-14T14:36:42.740Z,11.32
2023-05-14T14:39:46.101Z,11.52
2023-05-14T14:42:49.845Z,11.00
2023-05-14T14:45:52.992Z,10.07
2023-05-14T14:48:57.154Z,9.60
2023-05-14T14:52:00.588Z,8.07
2023-05-14T14:55:04.532Z,6.70
2023-05-14T14:58:07.729Z,6.57
2023-05-14T15:01:11.494Z,6.57
2023-05-14T15:04:14.854Z,7.27
2023-05-14T15:07:18.828Z,7.50
2023-05-14T15:10:22.091Z,8.55
2023-05-14T15:13:27.339Z,7.78
2023-05-14T15:16:30.626Z,7.27
2023-05-14T15:19:34.130Z,7.53
2023-05-14T15:22:37.260Z,7.93
2023-05-14T15:25:40.784Z,7.75
2023-05-14T15:28:44.023Z,7.97
2023-05-14T15:31:48.970Z,7.80
2023-05-14T15:34:52.483Z,8.20
2023-05-14T15:37:57.496Z,8.18
2023-05-14T15:41:01.314Z,8.32
2023-05-14T15:44:05.053Z,8.88
2023-05-14T15:47:08.119Z,10.30
2023-05-14T15:50:12.120Z,8.03
2023-05-14T15:53:15.440Z,7.93
2023-05-14T15:56:19.053Z,7.22
2023-05-14T15:59:22.339Z,6.65
2023-05-14T16:02:25.942Z,6.90
2023-05-14T16:05:29.712Z,6.37
2023-05-14T16:08:33.082Z,6.12
2023-05-14T16:11:36.775Z,6.90
2023-05-14T16:14:42.003Z,6.80
2023-05-14T16:17:45.607Z,6.33
2023-05-14T16:20:48.828Z,6.40
2023-05-14T16:23:53.289Z,6.70
2023-05-14T16:26:56.729Z,7.22
2023-05-14T16:30:00.947Z,6.25
2023-05-14T16:33:04.152Z,6.37
2023-05-14T16:36:07.632Z,5.83
2023-05-14T16:39:11.631Z,6.18
2023-05-14T16:42:15.246Z,5.75
2023-05-14T16:45:18.913Z,5.78
2023-05-14T16:48:24.016Z,5.73
2023-05-14T16:51:27.076Z,6.13
2023-05-14T16:54:30.421Z,5.93
2023-05-14T16:57:34.406Z,5.55
2023-05-14T17:00:37.789Z,5.57
2023-05-14T17:03:41.841Z,5.50
2023-05-14T17:06:46.892Z,6.63
2023-05-14T17:09:50.033Z,6.03
2023-05-14T17:12:53.531Z,5.78
2023-05-14T17:15:57.982Z,6.32
2023-05-14T17:19:02.084Z,5.90
2023-05-14T17:22:06.075Z,5.80
2023-05-14T17:25:10.859Z,6.00
2023-05-14T17:28:14.057Z,6.43
2023-05-14T17:31:17.691Z,6.40
2023-05-14T17:34:21.240Z,6.30
2023-05-14T17:37:25.763Z,6.83
2023-05-14T17:40:29.095Z,6.20
2023-05-14T17:43:32.588Z,6.78
2023-05-14T17:46:36.742Z,6.55
2023-05-14T17:49:40.073Z,6.87
2023-05-14T17:52:44.363Z,6.93
2023-05-14T17:55:48.123Z,7.10
2023-05-14T17:58:51.300Z,7.12
2023-05-14T18:01:54.813Z,7.40
2023-05-14T18:04:58.206Z,7.20
2023-05-14T18:08:03.452Z,6.57
2023-05-14T18:11:10.799Z,6.50
2023-05-14T18:14:14.954Z,7.15
2023-05-14T18:17:20.355Z,6.93
2023-05-14T18:20:25.173Z,7.17
2023-05-14T18:23:29.103Z,7.23
2023-05-14T18:26:34.608Z,7.50
2023-05-14T18:29:39.238Z,7.32
2023-05-14T18:32:45.044Z,7.35
2023-05-14T18:35:51.709Z,7.13
2023-05-14T18:38:56.762Z,8.87
2023-05-14T18:42:03.008Z,8.57
2023-05-14T18:45:07.667Z,8.25
2023-05-14T18:48:13.945Z,8.35
2023-05-14T18:51:18.423Z,7.70
2023-05-14T18:54:24.089Z,8.43
2023-05-14T18:57:29.892Z,15.13
2023-05-14T19:00:35.055Z,8.95
2023-05-14T19:03:43.169Z,8.68
2023-05-14T19:06:54.238Z,8.10
2023-05-14T19:09:59.138Z,7.77
2023-05-14T19:13:03.693Z,7.95
2023-05-14T19:16:09.024Z,7.68
2023-05-14T19:19:14.027Z,8.50
2023-05-14T19:22:19.771Z,7.70
2023-05-14T19:25:24.617Z,8.23
2023-05-14T19:28:30.489Z,7.68
2023-05-14T19:31:35.088Z,7.70
2023-05-14T19:34:40.521Z,7.25
2023-05-14T19:37:46.054Z,7.50
2023-05-14T19:40:51.367Z,7.90
2023-05-14T19:43:55.921Z,7.18
2023-05-14T19:46:59.981Z,8.45
2023-05-14T19:50:05.745Z,7.28
2023-05-14T19:53:11.983Z,7.63
2023-05-14T19:56:17.440Z,7.20
2023-05-14T19:59:22.179Z,7.35
2023-05-14T20:02:27.784Z,7.15
2023-05-14T20:05:34.446Z,5.93
2023-05-14T20:08:38.279Z,6.00
2023-05-14T20:11:41.970Z,5.82
2023-05-14T20:14:45.453Z,5.70
2023-05-14T20:17:49.124Z,6.28
2023-05-14T20:20:52.572Z,8.40
2023-05-14T20:23:56.290Z,5.83
2023-05-14T20:26:59.674Z,5.55
2023-05-14T20:30:03.264Z,5.30
2023-05-14T20:33:06.870Z,5.20
2023-05-14T20:36:10.616Z,5.18
2023-05-14T20:39:14.764Z,5.17
2023-05-14T20:42:18.141Z,5.07
2023-05-14T20:45:21.446Z,5.15
2023-05-14T20:48:25.058Z,4.32
2023-05-14T20:51:28.349Z,5.03
2023-05-14T20:54:31.914Z,4.93
2023-05-14T20:57:35.120Z,4.80
2023-05-14T21:00:39.388Z,4.70
2023-05-14T21:03:42.676Z,5.55
2023-05-14T21:06:46.374Z,5.47
2023-05-14T21:09:52.455Z,5.57
2023-05-14T21:12:56.234Z,5.17
2023-05-14T21:16:00.472Z,6.12
2023-05-14T21:19:07.184Z,6.12
2023-05-14T21:22:10.564Z,6.25
2023-05-14T21:25:14.055Z,6.63
2023-05-14T21:28:17.252Z,6.67
2023-05-14T21:31:21.007Z,6.87
2023-05-14T21:34:24.157Z,6.95
2023-05-14T21:37:27.640Z,7.22
2023-05-14T21:40:30.913Z,7.70
2023-05-14T21:43:35.545Z,7.10
2023-05-14T21:46:38.681Z,7.57
2023-05-14T21:49:43.319Z,7.47
2023-05-14T21:52:47.509Z,7.82
2023-05-14T21:55:51.092Z,8.40
2023-05-14T21:58:56.195Z,8.10
2023-05-14T22:05:06.137Z,8.23
2023-05-14T22:08:09.303Z,8.45
2023-05-14T22:11:12.676Z,7.67
2023-05-14T22:14:15.966Z,8.60
2023-05-14T22:17:19.462Z,8.15
2023-05-14T22:20:22.732Z,8.23
2023-05-14T22:23:26.121Z,8.55
2023-05-14T22:26:29.323Z,8.73
2023-05-14T22:29:32.649Z,9.23
2023-05-14T22:32:36.027Z,9.55
2023-05-14T22:35:40.606Z,9.82
2023-05-14T22:38:45.078Z,10.48
2023-05-14T22:41:55.083Z,10.67
2023-05-14T22:44:58.357Z,11.13
2023-05-14T22:48:02.643Z,11.23
2023-05-14T22:51:06.062Z,11.98
2023-05-14T22:54:10.759Z,11.98
2023-05-14T22:57:15.021Z,11.70
2023-05-14T23:00:18.864Z,11.90
2023-05-14T23:03:21.948Z,12.80
2023-05-14T23:06:25.577Z,11.12
2023-05-14T23:09:28.761Z,12.43
2023-05-14T23:12:32.580Z,11.33
2023-05-14T23:15:35.807Z,11.60
2023-05-14T23:18:39.426Z,11.85
2023-05-14T23:21:42.637Z,11.55
2023-05-14T23:24:46.127Z,11.48
2023-05-14T23:27:50.174Z,12.67
2023-05-14T23:30:53.728Z,11.47
2023-05-14T23:33:57.268Z,11.45
2023-05-14T23:37:01.755Z,11.43
2023-05-14T23:40:07.440Z,12.10
2023-05-14T23:43:10.896Z,11.60
2023-05-14T23:46:14.315Z,12.20
2023-05-14T23:49:17.740Z,10.63
2023-05-14T23:52:20.852Z,10.52
2023-05-14T23:55:24.515Z,10.80
2023-05-14T23:58:30.139Z,10.23
